Gaars Mill, Louisiana
Current Conditions -  °F | °C
As of 4:35 PM on Monday 24 Nov 2014 (Local Time) from KRSN Reporting Station
Clear Clear  
Wind Chill: 15°   Ceiling: Unl
Heat Index: 15°   Visibility: 10mi
Dew Point: -3°   Wind: 6mph
Humidity: 29%   Direction: 330°NNW
Pressure: 30.05"   Gusts: NA
Location:  32.0727°N, 92.6697°W
Report Text: KRSN 242235Z AUTO 33005KT 10SM CLR 15/M03 A3005 RMK AO2 T01501030
Loading
Personal Weather Stations






























Interactive Weather Map New forecast layout! Learn more

10-Day Weather Forecast

Advertisements
Track Severe Weather on mobile